Huvudsida
METAR-TAF:

METAR-TAF

Flygplatser :

Aeraport Vitsebsk

Vitsebsk, Vitryssland

latitud: 55-10N, longitud: 030-13E, höjd: 176 m

Aktuellt väderrapport

Denna rapport gjordes för 42 minuter sedan, klockan 09:00 UTC
Vind 4 kt från ost
Temperatur 13°C
Fuktighet 88%
Tryck 1023 hPa
Sikt: 8000 m
Spridda moln på en höjd av 1000 ft
Brutna moln på en höjd av 2400 ft, Cumulonimbus.

METAR: UMII 220900Z 09002MPS 8000 SCT010 BKN024CB 13/11 Q1023 R05/290050 TEMPO 2000 SHRA BKN005

Tid: 12:42 (09:42 UTC)

Väderprognos

Denna rapport gjordes för 1 timme och 37 minuter sedan, klockan 08:05 UTC
Prognos gäller från 22 kl. 09 UTC till 22 kl. 18 UTC
Vind 10 kt från ost
Sikt 10 km eller mer
Brutna moln på en höjd av 2000 ft
Temporärt
från 22 kl. 09 UTC till 22 kl. 18 UTC
Vind 19 kt varierande vindriktning
Sikt: 2000 m
Brutna moln på en höjd av 500 ft
Brutna moln på en höjd av 1500 ft, Cumulonimbus.
åska, regn

TAF: UMII 220805Z 2209/2218 09005MPS 9999 BKN020 TEMPO 2209/2218 VRB10MPS 2000 TSRA BKN005 BKN015CB

Aktuella väderrapporter och prognoser från 4000 flygplatser (METAR- och TAF-rapporter).

De tillgängliga stationerna syns som gula och röda prickar på kartan.

För musen över prickarna för att se namnen på stationerna.

Klicka sedan för att få väderrapporter och prognoser.

För att ändra kartan: Klicka på de gröna knapparna med ett svart kors på för att zooma in; den gröna knappen med ett streck på för att zooma ut; eller på de gröna pilarna för angränsande kartor.


METAR-TAF: